Observation data for Roaring Springs on 06/30/2020      Previous  Date  Next       Current Mesonet Observations  Soil Data  Daily Summary Page  Observations in Plain Language
KRRS 300500Z 17017G24KT 26/19 A2978 RMK A01 T02600192  RH  070%=      5-min Rain = 0
KRRS 300505Z 16016G26KT 26/19 A2979 RMK A01 T02590191  RH  070%=      5-min Rain = 0
KRRS 300510Z 17016G21KT 26/19 A2979 RMK A01 T02580189  RH  069%=      5-min Rain = 0
KRRS 300515Z 17017G25KT 26/19 A2979 RMK A01 T02580186  RH  068%=      5-min Rain = 0
KRRS 300520Z 17015G21KT 26/18 A2979 RMK A01 T02570184  RH  068%=      5-min Rain = 0
KRRS 300525Z 17018G25KT 26/18 A2979 RMK A01 T02560182  RH  067%=      5-min Rain = 0
KRRS 300530Z 17018G26KT 26/18 A2979 RMK A01 T02560181  RH  067%=      5-min Rain = 0
KRRS 300535Z 17017G23KT 26/18 A2979 RMK A01 T02550179  RH  066%=      5-min Rain = 0
KRRS 300540Z 17017G27KT 26/18 A298 RMK A01 T02550178  RH  066%=      5-min Rain = 0
KRRS 300545Z 17020G26KT 25/18 A298 RMK A01 T02540177  RH  066%=      5-min Rain = 0
KRRS 300550Z 17018G24KT 25/18 A298 RMK A01 T02540177  RH  066%=      5-min Rain = 0
KRRS 300555Z 18019G24KT 25/18 A2979 RMK A01 T02530177  RH  066%=      5-min Rain = 0
KRRS 300600Z 18020G26KT 25/18 A2979 RMK A01 T02530178  RH  067%=      5-min Rain = 0
KRRS 300605Z 18019G25KT 25/18 A2979 RMK A01 T02530178  RH  067%=      5-min Rain = 0
KRRS 300610Z 18020G28KT 25/18 A2979 RMK A01 T02530179  RH  067%=      5-min Rain = 0
KRRS 300615Z 18017G24KT 25/18 A298 RMK A01 T02530180  RH  067%=      5-min Rain = 0
KRRS 300620Z 18016G23KT 25/18 A298 RMK A01 T02530182  RH  068%=      5-min Rain = 0
KRRS 300625Z 18017KT 25/18 A298 RMK A01 T02530183  RH  069%=      5-min Rain = 0
KRRS 300630Z 18017G24KT 25/18 A298 RMK A01 T02530184  RH  069%=      5-min Rain = 0
KRRS 300635Z 18015G21KT 25/18 A2979 RMK A01 T02520184  RH  070%=      5-min Rain = 0
KRRS 300640Z 18015KT 25/19 A2979 RMK A01 T02510185  RH  071%=      5-min Rain = 0
KRRS 300645Z 18017G22KT 25/19 A2979 RMK A01 T02520185  RH  070%=      5-min Rain = 0
KRRS 300650Z 18017KT 25/19 A2979 RMK A01 T02510186  RH  071%=      5-min Rain = 0
KRRS 300655Z 18016G21KT 25/19 A2979 RMK A01 T02510187  RH  071%=      5-min Rain = 0
KRRS 300700Z 18015KT 25/19 A2979 RMK A01 T02510187  RH  072%=      5-min Rain = 0
KRRS 300705Z 19016KT 25/19 A2979 RMK A01 T02510188  RH  072%=      5-min Rain = 0
KRRS 300710Z 19015G20KT 25/19 A2979 RMK A01 T02520189  RH  072%=      5-min Rain = 0
KRRS 300715Z 18017G24KT 25/19 A2979 RMK A01 T02530191  RH  072%=      5-min Rain = 0
KRRS 300720Z 19016G25KT 26/19 A2979 RMK A01 T02550193  RH  073%=      5-min Rain = 0
KRRS 300725Z 19020G29KT 26/20 A2979 RMK A01 T02570196  RH  073%=      5-min Rain = 0
KRRS 300730Z 19019G26KT 26/20 A2979 RMK A01 T02570198  RH  074%=      5-min Rain = 0
KRRS 300735Z 19020KT 26/20 A2978 RMK A01 T02570199  RH  074%=      5-min Rain = 0
KRRS 300740Z 19017G23KT 26/20 A2978 RMK A01 T02560199  RH  075%=      5-min Rain = 0
KRRS 300745Z 19018G24KT 26/20 A2978 RMK A01 T02550200  RH  076%=      5-min Rain = 0
KRRS 300750Z 19017G22KT 26/20 A2978 RMK A01 T02550200  RH  076%=      5-min Rain = 0
KRRS 300755Z 19018KT 25/20 A2978 RMK A01 T02540200  RH  076%=      5-min Rain = 0
KRRS 300800Z 19016G21KT 25/20 A2978 RMK A01 T02530200  RH  077%=      5-min Rain = 0
KRRS 300805Z 19016G21KT 25/20 A2978 RMK A01 T02530200  RH  077%=      5-min Rain = 0
KRRS 300810Z 19016G22KT 25/20 A2978 RMK A01 T02520200  RH  077%=      5-min Rain = 0
KRRS 300815Z 19016G21KT 25/20 A2978 RMK A01 T02520200  RH  078%=      5-min Rain = 0
KRRS 300820Z 19014G23KT 25/20 A2978 RMK A01 T02510201  RH  078%=      5-min Rain = 0
KRRS 300825Z 19016G24KT 25/20 A2977 RMK A01 T02520201  RH  078%=      5-min Rain = 0
KRRS 300830Z 20016KT 25/20 A2977 RMK A01 T02510201  RH  078%=      5-min Rain = 0
KRRS 300835Z 20016KT 25/20 A2977 RMK A01 T02510201  RH  078%=      5-min Rain = 0
KRRS 300840Z 20015KT 25/20 A2977 RMK A01 T02500201  RH  079%=      5-min Rain = 0
KRRS 300845Z 20017G23KT 25/20 A2977 RMK A01 T02500201  RH  079%=      5-min Rain = 0
KRRS 300850Z 20017G22KT 25/20 A2977 RMK A01 T02500201  RH  079%=      5-min Rain = 0
KRRS 300855Z 20016G21KT 25/20 A2977 RMK A01 T02500201  RH  079%=      5-min Rain = 0
KRRS 300900Z 20016G21KT 25/20 A2976 RMK A01 T02500201  RH  079%=      5-min Rain = 0
KRRS 300905Z 20016G22KT 25/20 A2976 RMK A01 T02500201  RH  079%=      5-min Rain = 0
KRRS 300910Z 20015G22KT 25/20 A2976 RMK A01 T02500201  RH  079%=      5-min Rain = 0
KRRS 300915Z 20016G22KT 25/20 A2977 RMK A01 T02490201  RH  079%=      5-min Rain = 0
KRRS 300920Z 20019G25KT 25/20 A2976 RMK A01 T02510202  RH  079%=      5-min Rain = 0
KRRS 300925Z 20018G26KT 25/20 A2976 RMK A01 T02510202  RH  079%=      5-min Rain = 0
KRRS 300930Z 20016G23KT 25/20 A2976 RMK A01 T02500202  RH  079%=      5-min Rain = 0
KRRS 300935Z 21017G22KT 25/20 A2976 RMK A01 T02500202  RH  079%=      5-min Rain = 0
KRRS 300940Z 21018KT 25/20 A2976 RMK A01 T02500202  RH  079%=      5-min Rain = 0
KRRS 300945Z 21017G23KT 25/20 A2976 RMK A01 T02500202  RH  079%=      5-min Rain = 0
KRRS 300950Z 21017G22KT 25/20 A2976 RMK A01 T02500202  RH  079%=      5-min Rain = 0
KRRS 300955Z 21017G24KT 25/20 A2976 RMK A01 T02490202  RH  080%=      5-min Rain = 0
KRRS 301000Z 21017G24KT 25/20 A2976 RMK A01 T02490202  RH  080%=      5-min Rain = 0
KRRS 301005Z 21018G23KT 25/20 A2976 RMK A01 T02490202  RH  080%=      5-min Rain = 0
KRRS 301010Z 21017G25KT 25/20 A2976 RMK A01 T02480202  RH  080%=      5-min Rain = 0
KRRS 301015Z 21017G23KT 25/20 A2976 RMK A01 T02480202  RH  080%=      5-min Rain = 0
KRRS 301020Z 21017G23KT 25/20 A2976 RMK A01 T02470201  RH  080%=      5-min Rain = 0
KRRS 301025Z 21017KT 25/20 A2976 RMK A01 T02460201  RH  081%=      5-min Rain = 0
KRRS 301030Z 21017G23KT 25/20 A2976 RMK A01 T02470201  RH  081%=      5-min Rain = 0
KRRS 301035Z 21016G24KT 25/20 A2976 RMK A01 T02460201  RH  081%=      5-min Rain = 0
KRRS 301040Z 21016G21KT 25/20 A2976 RMK A01 T02450201  RH  081%=      5-min Rain = 0
KRRS 301045Z 21016G22KT 25/20 A2976 RMK A01 T02450201  RH  081%=      5-min Rain = 0
KRRS 301050Z 21016KT 24/20 A2976 RMK A01 T02440201  RH  081%=      5-min Rain = 0
KRRS 301055Z 21017G23KT 24/20 A2976 RMK A01 T02440201  RH  081%=      5-min Rain = 0
KRRS 301100Z 21017G22KT 24/20 A2976 RMK A01 T02440201  RH  081%=      5-min Rain = 0
KRRS 301105Z 21017G24KT 25/20 A2977 RMK A01 T02450201  RH  081%=      5-min Rain = 0
KRRS 301110Z 21016G21KT 25/20 A2977 RMK A01 T02450201  RH  081%=      5-min Rain = 0
KRRS 301115Z 21016G22KT 24/20 A2977 RMK A01 T02440201  RH  082%=      5-min Rain = 0
KRRS 301120Z 21017KT 24/20 A2977 RMK A01 T02440202  RH  082%=      5-min Rain = 0
KRRS 301125Z 20015KT 24/20 A2977 RMK A01 T02430201  RH  082%=      5-min Rain = 0
KRRS 301130Z 20016G21KT 24/20 A2977 RMK A01 T02430202  RH  082%=      5-min Rain = 0
KRRS 301135Z 21016G22KT 24/20 A2978 RMK A01 T02430202  RH  082%=      5-min Rain = 0
KRRS 301140Z 21016KT 24/20 A2978 RMK A01 T02430202  RH  082%=      5-min Rain = 0
KRRS 301145Z 21015G21KT 24/20 A2978 RMK A01 T02430202  RH  082%=      5-min Rain = 0
KRRS 301150Z 21015G21KT 24/20 A2978 RMK A01 T02430202  RH  082%=      5-min Rain = 0
KRRS 301155Z 21015G21KT 24/20 A2978 RMK A01 T02430202  RH  082%=      5-min Rain = 0
KRRS 301200Z 21016G22KT 24/20 A2978 RMK A01 T02440202  RH  082%=      5-min Rain = 0
KRRS 301205Z 21014G19KT 24/20 A2979 RMK A01 T02430202  RH  082%=      5-min Rain = 0
KRRS 301210Z 21016G21KT 24/20 A2979 RMK A01 T02440202  RH  082%=      5-min Rain = 0
KRRS 301215Z 21015G21KT 25/20 A2979 RMK A01 T02450203  RH  082%=      5-min Rain = 0
KRRS 301220Z 21014G21KT 25/20 A2979 RMK A01 T02450203  RH  082%=      5-min Rain = 0
KRRS 301225Z 21016KT 25/20 A2979 RMK A01 T02460203  RH  082%=      5-min Rain = 0
KRRS 301230Z 21014G19KT 25/20 A298 RMK A01 T02470203  RH  081%=      5-min Rain = 0
KRRS 301235Z 21016G22KT 25/20 A298 RMK A01 T02480204  RH  081%=      5-min Rain = 0
KRRS 301240Z 21014G19KT 25/20 A298 RMK A01 T02490204  RH  080%=      5-min Rain = 0
KRRS 301245Z 21016G21KT 25/20 A298 RMK A01 T02510204  RH  080%=      5-min Rain = 0
KRRS 301250Z 21016G22KT 25/21 A298 RMK A01 T02530205  RH  079%=      5-min Rain = 0
KRRS 301255Z 21017KT 25/21 A298 RMK A01 T02540205  RH  079%=      5-min Rain = 0
KRRS 301300Z 21018G25KT 26/21 A298 RMK A01 T02550205  RH  078%=      5-min Rain = 0
KRRS 301305Z 21019G26KT 26/21 A298 RMK A01 T02570205  RH  078%=      5-min Rain = 0
KRRS 301310Z 21019G24KT 26/21 A298 RMK A01 T02580205  RH  077%=      5-min Rain = 0
KRRS 301315Z 20017G23KT 26/21 A298 RMK A01 T02600206  RH  076%=      5-min Rain = 0
KRRS 301320Z 20020G28KT 26/21 A298 RMK A01 T02610205  RH  075%=      5-min Rain = 0
KRRS 301325Z 21016G25KT 26/21 A298 RMK A01 T02640206  RH  075%=      5-min Rain = 0
KRRS 301330Z 21019G25KT 27/21 A298 RMK A01 T02660205  RH  074%=      5-min Rain = 0
KRRS 301335Z 20018G23KT 27/21 A298 RMK A01 T02660205  RH  073%=      5-min Rain = 0
KRRS 301340Z 21015G20KT 27/21 A2981 RMK A01 T02700206  RH  072%=      5-min Rain = 0
KRRS 301345Z 21018G24KT 27/21 A2981 RMK A01 T02710205  RH  071%=      5-min Rain = 0
KRRS 301350Z 21016KT 27/21 A2981 RMK A01 T02730205  RH  071%=      5-min Rain = 0
KRRS 301355Z 21017G24KT 28/20 A2981 RMK A01 T02750204  RH  069%=      5-min Rain = 0
KRRS 301400Z 21015G22KT 28/21 A2982 RMK A01 T02780205  RH  068%=      5-min Rain = 0
KRRS 301405Z 21018G24KT 28/20 A2982 RMK A01 T02800203  RH  066%=      5-min Rain = 0
KRRS 301410Z 22018G23KT 28/20 A2982 RMK A01 T02820202  RH  065%=      5-min Rain = 0
KRRS 301415Z 21018G23KT 28/20 A2982 RMK A01 T02840201  RH  064%=      5-min Rain = 0
KRRS 301420Z 22017G23KT 29/20 A2982 RMK A01 T02870200  RH  063%=      5-min Rain = 0
KRRS 301425Z 22019G25KT 29/20 A2982 RMK A01 T02880198  RH  062%=      5-min Rain = 0
KRRS 301430Z 21018G23KT 29/20 A2982 RMK A01 T02910198  RH  061%=      5-min Rain = 0
KRRS 301435Z 22019G24KT 29/20 A2982 RMK A01 T02930196  RH  059%=      5-min Rain = 0
KRRS 301440Z 22016G23KT 30/20 A2982 RMK A01 T02960197  RH  059%=      5-min Rain = 0
KRRS 301445Z 22016G21KT 30/20 A2983 RMK A01 T02990197  RH  058%=      5-min Rain = 0
KRRS 301450Z 22016G21KT 30/20 A2983 RMK A01 T03000197  RH  057%=      5-min Rain = 0
KRRS 301455Z 23016G23KT 30/19 A2983 RMK A01 T03040194  RH  055%=      5-min Rain = 0
KRRS 301500Z 23015G22KT 31/19 A2983 RMK A01 T03070190  RH  052%=      5-min Rain = 0
KRRS 301505Z 23014G21KT 31/19 A2982 RMK A01 T03110189  RH  051%=      5-min Rain = 0
KRRS 301510Z 23015G20KT 32/18 A2982 RMK A01 T03150183  RH  048%=      5-min Rain = 0
KRRS 301515Z 23014G21KT 32/18 A2982 RMK A01 T03180183  RH  047%=      5-min Rain = 0
KRRS 301520Z 23015G20KT 32/18 A2982 RMK A01 T03180178  RH  046%=      5-min Rain = 0
KRRS 301525Z 22016G22KT 32/17 A2982 RMK A01 T03210174  RH  044%=      5-min Rain = 0
KRRS 301530Z 23016G22KT 32/17 A2982 RMK A01 T03230171  RH  042%=      5-min Rain = 0
KRRS 301535Z 23016G24KT 32/17 A2982 RMK A01 T03240171  RH  042%=      5-min Rain = 0
KRRS 301540Z 24016G22KT 33/16 A2983 RMK A01 T03250163  RH  040%=      5-min Rain = 0
KRRS 301545Z 22015G21KT 33/16 A2982 RMK A01 T03270162  RH  039%=      5-min Rain = 0
KRRS 301550Z 23016G22KT 33/16 A2982 RMK A01 T03300157  RH  037%=      5-min Rain = 0
KRRS 301555Z 24016G21KT 33/15 A2982 RMK A01 T03300153  RH  036%=      5-min Rain = 0
KRRS 301600Z 24013KT 33/15 A2983 RMK A01 T03340153  RH  035%=      5-min Rain = 0
KRRS 301605Z 25013G19KT 34/14 A2983 RMK A01 T03380140  RH  032%=      5-min Rain = 0
KRRS 301610Z 24014G19KT 34/14 A2983 RMK A01 T03410144  RH  032%=      5-min Rain = 0
KRRS 301615Z 24015G21KT 34/14 A2983 RMK A01 T03430138  RH  030%=      5-min Rain = 0
KRRS 301620Z 25014G23KT 34/13 A2983 RMK A01 T03420130  RH  029%=      5-min Rain = 0
KRRS 301625Z 25015G22KT 34/13 A2983 RMK A01 T03440130  RH  029%=      5-min Rain = 0
KRRS 301630Z 26015G20KT 35/12 A2983 RMK A01 T03470123  RH  027%=      5-min Rain = 0
KRRS 301635Z 26014G20KT 35/12 A2983 RMK A01 T03490124  RH  027%=      5-min Rain = 0
KRRS 301640Z 24014G20KT 35/12 A2983 RMK A01 T03510121  RH  026%=      5-min Rain = 0
KRRS 301645Z 27015G22KT 35/12 A2983 RMK A01 T03520116  RH  025%=      5-min Rain = 0
KRRS 301650Z 27015G20KT 35/11 A2983 RMK A01 T03490113  RH  025%=      5-min Rain = 0
KRRS 301655Z 26014G19KT 35/11 A2983 RMK A01 T03510110  RH  024%=      5-min Rain = 0
KRRS 301700Z 26013G20KT 35/11 A2983 RMK A01 T03510112  RH  024%=      5-min Rain = 0
KRRS 301705Z 27012G17KT 36/11 A2983 RMK A01 T03550112  RH  024%=      5-min Rain = 0
KRRS 301710Z 27012G20KT 36/11 A2983 RMK A01 T03600110  RH  023%=      5-min Rain = 0
KRRS 301715Z 27013G19KT 36/10 A2983 RMK A01 T03570098  RH  021%=      5-min Rain = 0
KRRS 301720Z 25014G20KT 36/09 A2983 RMK A01 T03580089  RH  020%=      5-min Rain = 0
KRRS 301725Z 26011KT 36/09 A2983 RMK A01 T03600086  RH  019%=      5-min Rain = 0
KRRS 301730Z 25012G20KT 36/09 A2983 RMK A01 T03640088  RH  019%=      5-min Rain = 0
KRRS 301735Z 26012KT 36/09 A2983 RMK A01 T03640085  RH  019%=      5-min Rain = 0
KRRS 301740Z 24012G19KT 37/07 A2983 RMK A01 T03660068  RH  017%=      5-min Rain = 0
KRRS 301745Z 26011G17KT 37/07 A2983 RMK A01 T03670072  RH  017%=      5-min Rain = 0
KRRS 301750Z 28012KT 37/07 A2982 RMK A01 T03680068  RH  016%=      5-min Rain = 0
KRRS 301755Z 26012G17KT 37/07 A2983 RMK A01 T03720066  RH  016%=      5-min Rain = 0
KRRS 301800Z 26011G17KT 37/06 A2982 RMK A01 T03690061  RH  015%=      5-min Rain = 0
KRRS 301805Z 27010G16KT 37/06 A2982 RMK A01 T03680056  RH  015%=      5-min Rain = 0
KRRS 301810Z 26011G20KT 37/06 A2982 RMK A01 T03690064  RH  016%=      5-min Rain = 0
KRRS 301815Z 25009G16KT 37/06 A2982 RMK A01 T03680060  RH  015%=      5-min Rain = 0
KRRS 301820Z 25013G20KT 37/06 A2982 RMK A01 T03740059  RH  015%=      5-min Rain = 0
KRRS 301825Z 25012G20KT 37/06 A2982 RMK A01 T03740056  RH  014%=      5-min Rain = 0
KRRS 301830Z 23013G20KT 37/05 A2982 RMK A01 T03720051  RH  014%=      5-min Rain = 0
KRRS 301835Z 22011G19KT 37/05 A2981 RMK A01 T03740053  RH  014%=      5-min Rain = 0
KRRS 301840Z 23015G24KT 38/06 A2981 RMK A01 T03750056  RH  014%=      5-min Rain = 0
KRRS 301845Z 20014G22KT 38/06 A2981 RMK A01 T03770057  RH  014%=      5-min Rain = 0
KRRS 301850Z 19011G17KT 38/06 A2981 RMK A01 T03800056  RH  014%=      5-min Rain = 0
KRRS 301855Z 23013G20KT 38/06 A2981 RMK A01 T03810060  RH  014%=      5-min Rain = 0
KRRS 301900Z 22013G19KT 38/06 A2981 RMK A01 T03790059  RH  014%=      5-min Rain = 0
KRRS 301905Z 23015G21KT 38/06 A298 RMK A01 T03810057  RH  014%=      5-min Rain = 0
KRRS 301910Z 25014G21KT 38/06 A2981 RMK A01 T03810055  RH  014%=      5-min Rain = 0
KRRS 301915Z 24014G22KT 38/05 A298 RMK A01 T03770052  RH  014%=      5-min Rain = 0
KRRS 301920Z 25012G19KT 38/05 A298 RMK A01 T03780052  RH  014%=      5-min Rain = 0
KRRS 301925Z 25009G14KT 38/05 A298 RMK A01 T03770053  RH  014%=      5-min Rain = 0
KRRS 301930Z 25012G17KT 38/05 A298 RMK A01 T03790054  RH  014%=      5-min Rain = 0
KRRS 301935Z 22016G22KT 38/05 A298 RMK A01 T03830054  RH  014%=      5-min Rain = 0
KRRS 301940Z 23013G22KT 38/05 A298 RMK A01 T03820052  RH  014%=      5-min Rain = 0
KRRS 301945Z 24011G18KT 38/05 A298 RMK A01 T03810053  RH  014%=      5-min Rain = 0
KRRS 301950Z 24014G20KT 38/05 A2979 RMK A01 T03830054  RH  014%=      5-min Rain = 0
KRRS 301955Z 25013G20KT 38/05 A2979 RMK A01 T03810053  RH  014%=      5-min Rain = 0
KRRS 302000Z 25009G15KT 38/06 A2979 RMK A01 T03840056  RH  014%=      5-min Rain = 0
KRRS 302005Z 22014G19KT 39/06 A2979 RMK A01 T03870055  RH  013%=      5-min Rain = 0
KRRS 302010Z 23010KT 39/05 A2979 RMK A01 T03850054  RH  014%=      5-min Rain = 0
KRRS 302015Z 25014G22KT 39/06 A2979 RMK A01 T03880056  RH  013%=      5-min Rain = 0
KRRS 302020Z 21015G22KT 39/06 A2979 RMK A01 T03900058  RH  014%=      5-min Rain = 0
KRRS 302025Z 24013G18KT 39/06 A2979 RMK A01 T03860055  RH  014%=      5-min Rain = 0
KRRS 302030Z 25015G22KT 39/06 A2978 RMK A01 T03870056  RH  014%=      5-min Rain = 0
KRRS 302035Z 24014G19KT 39/06 A2978 RMK A01 T03890056  RH  013%=      5-min Rain = 0
KRRS 302040Z 25009G17KT 39/05 A2978 RMK A01 T03850054  RH  014%=      5-min Rain = 0
KRRS 302045Z 22014G21KT 39/06 A2978 RMK A01 T03910059  RH  014%=      5-min Rain = 0
KRRS 302050Z 20016G23KT 39/06 A2978 RMK A01 T03910057  RH  013%=      5-min Rain = 0
KRRS 302055Z 23015G23KT 39/06 A2978 RMK A01 T03870055  RH  013%=      5-min Rain = 0
KRRS 302100Z 24010G19KT 39/06 A2977 RMK A01 T03870057  RH  014%=      5-min Rain = 0
KRRS 302105Z 23015G23KT 39/06 A2977 RMK A01 T03920059  RH  013%=      5-min Rain = 0
KRRS 302110Z 23016G21KT 39/06 A2977 RMK A01 T03930060  RH  013%=      5-min Rain = 0
KRRS 302115Z 24014G22KT 39/06 A2977 RMK A01 T03870058  RH  014%=      5-min Rain = 0
KRRS 302120Z 21013G21KT 39/06 A2977 RMK A01 T03910058  RH  013%=      5-min Rain = 0
KRRS 302125Z 25012G17KT 39/06 A2976 RMK A01 T03930060  RH  013%=      5-min Rain = 0
KRRS 302130Z 24015G23KT 40/06 A2976 RMK A01 T03960061  RH  013%=      5-min Rain = 0
KRRS 302135Z 25014G20KT 39/06 A2976 RMK A01 T03920059  RH  013%=      5-min Rain = 0
KRRS 302140Z 24013G20KT 39/06 A2976 RMK A01 T03920058  RH  013%=      5-min Rain = 0
KRRS 302145Z 24017G24KT 39/06 A2976 RMK A01 T03910057  RH  013%=      5-min Rain = 0
KRRS 302150Z 25015KT 39/06 A2975 RMK A01 T03890056  RH  013%=      5-min Rain = 0
KRRS 302155Z 25012G19KT 39/06 A2975 RMK A01 T03900058  RH  013%=      5-min Rain = 0
KRRS 302200Z 25013G19KT 39/06 A2975 RMK A01 T03910057  RH  013%=      5-min Rain = 0
KRRS 302205Z 23013G18KT 40/06 A2975 RMK A01 T03950061  RH  013%=      5-min Rain = 0
KRRS 302210Z 24016G31KT 39/06 A2975 RMK A01 T03940058  RH  013%=      5-min Rain = 0
KRRS 302215Z 23012G17KT 39/06 A2975 RMK A01 T03890056  RH  013%=      5-min Rain = 0
KRRS 302220Z 24012G17KT 39/06 A2975 RMK A01 T03900057  RH  013%=      5-min Rain = 0
KRRS 302225Z 24015G21KT 39/06 A2975 RMK A01 T03890056  RH  013%=      5-min Rain = 0
KRRS 302230Z 25014G22KT 39/05 A2975 RMK A01 T03890054  RH  013%=      5-min Rain = 0
KRRS 302235Z 22014G20KT 39/06 A2975 RMK A01 T03910056  RH  013%=      5-min Rain = 0
KRRS 302240Z 20015KT 39/06 A2975 RMK A01 T03880056  RH  013%=      5-min Rain = 0
KRRS 302245Z 21011G18KT 39/06 A2975 RMK A01 T03890057  RH  013%=      5-min Rain = 0
KRRS 302250Z 24013G19KT 39/06 A2974 RMK A01 T03880056  RH  013%=      5-min Rain = 0
KRRS 302255Z 22011G19KT 39/06 A2975 RMK A01 T03880055  RH  013%=      5-min Rain = 0
KRRS 302300Z 21014G20KT 39/06 A2975 RMK A01 T03900057  RH  013%=      5-min Rain = 0
KRRS 302305Z 20010KT 39/06 A2975 RMK A01 T03890058  RH  014%=      5-min Rain = 0
KRRS 302310Z 23008KT 39/06 A2975 RMK A01 T03890056  RH  013%=      5-min Rain = 0
KRRS 302315Z 20012G17KT 39/06 A2974 RMK A01 T03900059  RH  014%=      5-min Rain = 0
KRRS 302320Z 21011G17KT 39/06 A2975 RMK A01 T03900060  RH  014%=      5-min Rain = 0
KRRS 302325Z 24011G17KT 39/06 A2974 RMK A01 T03920060  RH  013%=      5-min Rain = 0
KRRS 302330Z 23010G15KT 39/06 A2974 RMK A01 T03890057  RH  014%=      5-min Rain = 0
KRRS 302335Z 20012KT 39/06 A2974 RMK A01 T03890059  RH  014%=      5-min Rain = 0
KRRS 302340Z 21011KT 39/06 A2974 RMK A01 T03870059  RH  014%=      5-min Rain = 0
KRRS 302345Z 21012G20KT 39/06 A2974 RMK A01 T03890061  RH  014%=      5-min Rain = 0
KRRS 302350Z 21015G20KT 39/06 A2974 RMK A01 T03880059  RH  014%=      5-min Rain = 0
KRRS 302355Z 20011KT 38/06 A2974 RMK A01 T03790057  RH  014%=      5-min Rain = 0
KRRS 010000Z 22009KT 38/06 A2974 RMK A01 T03830059  RH  014%=      5-min Rain = 0
KRRS 010005Z 24012G17KT 39/06 A2974 RMK A01 T03870056  RH  014%=      5-min Rain = 0
KRRS 010010Z 24012G17KT 39/06 A2974 RMK A01 T03850057  RH  014%=      5-min Rain = 0
KRRS 010015Z 23010G15KT 38/06 A2974 RMK A01 T03810057  RH  014%=      5-min Rain = 0
KRRS 010020Z 22008G13KT 38/06 A2974 RMK A01 T03780057  RH  014%=      5-min Rain = 0
KRRS 010025Z 20012KT 38/06 A2974 RMK A01 T03780058  RH  014%=      5-min Rain = 0
KRRS 010030Z 21011G16KT 38/06 A2974 RMK A01 T03820062  RH  014%=      5-min Rain = 0
KRRS 010035Z 23010G15KT 38/06 A2974 RMK A01 T03820063  RH  015%=      5-min Rain = 0
KRRS 010040Z 21009G14KT 38/07 A2974 RMK A01 T03800065  RH  015%=      5-min Rain = 0
KRRS 010045Z 22008KT 38/07 A2974 RMK A01 T03800067  RH  015%=      5-min Rain = 0
KRRS 010050Z 22007KT 38/07 A2974 RMK A01 T03790069  RH  015%=      5-min Rain = 0
KRRS 010055Z 22007KT 38/07 A2974 RMK A01 T03780067  RH  015%=      5-min Rain = 0
KRRS 010100Z 21007KT 38/07 A2974 RMK A01 T03780069  RH  016%=      5-min Rain = 0
KRRS 010105Z 19006KT 38/08 A2974 RMK A01 T03770075  RH  016%=      5-min Rain = 0
KRRS 010110Z 15013G21KT 37/13 A2975 RMK A01 T03680127  RH  025%=      5-min Rain = 0
KRRS 010115Z 16014G19KT 35/17 A2975 RMK A01 T03490169  RH  036%=      5-min Rain = 0
KRRS 010120Z 17013KT 34/18 A2976 RMK A01 T03410175  RH  039%=      5-min Rain = 0
KRRS 010125Z 17013G20KT 34/18 A2976 RMK A01 T03360179  RH  041%=      5-min Rain = 0
KRRS 010130Z 17015G21KT 33/18 A2976 RMK A01 T03340179  RH  042%=      5-min Rain = 0
KRRS 010135Z 17014G20KT 33/18 A2976 RMK A01 T03330178  RH  042%=      5-min Rain = 0
KRRS 010140Z 17012G17KT 33/18 A2976 RMK A01 T03320178  RH  042%=      5-min Rain = 0
KRRS 010145Z 17013G19KT 33/18 A2976 RMK A01 T03300177  RH  042%=      5-min Rain = 0
KRRS 010150Z 17012G17KT 33/18 A2976 RMK A01 T03290177  RH  043%=      5-min Rain = 0
KRRS 010155Z 17012KT 33/18 A2976 RMK A01 T03270178  RH  043%=      5-min Rain = 0
KRRS 010200Z 17010KT 33/18 A2977 RMK A01 T03250179  RH  044%=      5-min Rain = 0
KRRS 010205Z 17008KT 32/18 A2977 RMK A01 T03220180  RH  045%=      5-min Rain = 0
KRRS 010210Z 17009KT 32/18 A2977 RMK A01 T03200180  RH  046%=      5-min Rain = 0
KRRS 010215Z 16007KT 32/18 A2977 RMK A01 T03180180  RH  046%=      5-min Rain = 0
KRRS 010220Z 17007KT 32/18 A2977 RMK A01 T03160181  RH  047%=      5-min Rain = 0
KRRS 010225Z 17007KT 31/18 A2978 RMK A01 T03140181  RH  048%=      5-min Rain = 0
KRRS 010230Z 17007KT 31/18 A2978 RMK A01 T03130181  RH  048%=      5-min Rain = 0
KRRS 010235Z 17008KT 31/18 A2978 RMK A01 T03110181  RH  048%=      5-min Rain = 0
KRRS 010240Z 17008KT 31/18 A2978 RMK A01 T03100181  RH  049%=      5-min Rain = 0
KRRS 010245Z 17009KT 31/18 A2978 RMK A01 T03090182  RH  049%=      5-min Rain = 0
KRRS 010250Z 16007KT 31/18 A2978 RMK A01 T03090182  RH  049%=      5-min Rain = 0
KRRS 010255Z 16006KT 31/18 A2979 RMK A01 T03070183  RH  050%=      5-min Rain = 0
KRRS 010300Z 16006KT 31/18 A2979 RMK A01 T03060184  RH  051%=      5-min Rain = 0
KRRS 010305Z 16006KT 30/18 A2979 RMK A01 T03040184  RH  052%=      5-min Rain = 0
KRRS 010310Z 16006KT 30/19 A2979 RMK A01 T03000185  RH  053%=      5-min Rain = 0
KRRS 010315Z 17006KT 30/19 A2979 RMK A01 T02980185  RH  054%=      5-min Rain = 0
KRRS 010320Z 17006KT 30/19 A2979 RMK A01 T02970186  RH  054%=      5-min Rain = 0
KRRS 010325Z 18005KT 29/19 A298 RMK A01 T02940186  RH  055%=      5-min Rain = 0
KRRS 010330Z 18006KT 29/19 A298 RMK A01 T02920186  RH  056%=      5-min Rain = 0
KRRS 010335Z 18006KT 29/19 A298 RMK A01 T02900187  RH  057%=      5-min Rain = 0
KRRS 010340Z 17006KT 29/19 A298 RMK A01 T02900187  RH  057%=      5-min Rain = 0
KRRS 010345Z 17007KT 29/19 A298 RMK A01 T02910188  RH  057%=      5-min Rain = 0
KRRS 010350Z 17007KT 29/19 A298 RMK A01 T02920189  RH  057%=      5-min Rain = 0
KRRS 010355Z 17006KT 29/19 A298 RMK A01 T02910189  RH  057%=      5-min Rain = 0
KRRS 010400Z 17007KT 29/19 A298 RMK A01 T02900189  RH  057%=      5-min Rain = 0
KRRS 010405Z 17006KT 29/19 A298 RMK A01 T02880189  RH  058%=      5-min Rain = 0
KRRS 010410Z 18006KT 29/19 A298 RMK A01 T02850190  RH  060%=      5-min Rain = 0
KRRS 010415Z 19007KT 28/19 A298 RMK A01 T02820190  RH  061%=      5-min Rain = 0
KRRS 010420Z 18007KT 28/19 A298 RMK A01 T02790190  RH  062%=      5-min Rain = 0
KRRS 010425Z 17006KT 28/19 A298 RMK A01 T02780190  RH  062%=      5-min Rain = 0
KRRS 010430Z 17006KT 28/19 A298 RMK A01 T02790190  RH  062%=      5-min Rain = 0
KRRS 010435Z 16006KT 28/19 A298 RMK A01 T02780190  RH  062%=      5-min Rain = 0
KRRS 010440Z 16006KT 28/19 A2981 RMK A01 T02760191  RH  063%=      5-min Rain = 0
KRRS 010445Z 17007KT 28/19 A2981 RMK A01 T02760191  RH  063%=      5-min Rain = 0
KRRS 010450Z 17007KT 28/19 A2981 RMK A01 T02750191  RH  063%=      5-min Rain = 0
KRRS 010455Z 18007KT 27/19 A2981 RMK A01 T02730189  RH  064%=      5-min Rain = 0

Page generated in 0.0094 seconds.